Laguna Del Sauce, Uruguay

10:16 PM UYT on December 10, 2016 (GMT -0300)
Capitan Curbelo International | | Change Station

Elev 98 ft 34.86 °S, 55.09 °W | Updated 1 hour ago

Clear
Clear
73 °F
Feels Like 73 °F
N
24
Wind Variable Wind from South
Gusts 39 mph

Today
High -- | Low -- °F
--% Chance of Precip.
Yesterday
High -- | Low -- °F
Precip. -- in
Pressure 29.53 in
Visibility -9999.0 miles
Clouds
Dew Point 57 °F
Humidity 57%
Rainfall 0.00 in
Snow Depth Not available.
5:20 AM 7:47 PM
Waxing Gibbous, 87% visible
SPECI SULS 110016Z 18021G34KT CAVOK 23/14 Q1000
Pressure 29.53 in
Visibility -9999.0 miles
Clouds
Dew Point 57 °F
Humidity 57%
Rainfall 0.00 in
Snow Depth Not available.
5:20 AM 7:47 PM
Waxing Gibbous, 87% visible
SPECI SULS 110016Z 18021G34KT CAVOK 23/14 Q1000

10-Day Weather Forecast

No radar image for this location.
×

Almanac

Astronomy

Dec. 10, 2016 Rise Set
Actual Time
Civil Twilight
Nautical Twilight
Astronomical Twilight
Moon
Length of Visible Light
Length of Day
Tomorrow will be .
, % of the Moon is Illuminated

Today's Extremes

Country Highs Country Lows

Community

WunderPhotos

Upload Photos

1,956,686 photos uploaded!

WunderBlog® & News

Nearby

Air Quality

  Air Quality AQ Index Pollutant
Not available.

Snow Depth

Station Depth Elevation

Earthquake Activity

City Distance Mag. Time & Date
Minimum magnitude displayed is 2.5.

Coastal Water Temperatures

Place Temperature

Stations

Nearby Weather Stations

Station Location Temp. Windchill Dew Point Humidity Wind Precip. Elev Updated Type